Auburn, KS

10:08 AM CST on December 28, 2014 (GMT -0600)
South Pointe Bay Estates | Change Station
CLOSE
Current Station
Personal Weather Station
Location: Auburn, KS
Elevation: 1096 ft
Nearby Weather Stations

Elev 1096 ft 38.95 °N, 95.80 °W | Updated 10 minutes ago

Clear
Clear
27.4 °F
Feels Like 27 °F
N
3.0
Wind Variable Wind from WSW
Gusts 4.0 mph

Today
High -- | Low -- °F
--% Chance of Precip.
Yesterday
High -- | Low -- °F
Precip. -- in
7:41 AM 5:08 PM
Waxing Crescent, 49% visible
Pressure 30.27 in
Visibility 10.0 miles
Clouds Clear
Windchill 27 °F
Dew Point 23 °F
Humidity 83%
Rainfall 0.00 in
Snow Depth Not available.
UV 1.1 out of 12
Pollen .10 out of 12
Air Quality Not available.
Flu Activity Not available.
METAR KFOE 281553Z 20006KT 10SM CLR M03/M06 A3023 RMK AO2 SLP251 T10281061

More Conditions Fewer Conditions

Pressure 30.27 in
Visibility 10.0 miles
Clouds Clear
Windchill 27 °F
Dew Point 23 °F
Humidity 83%
Rainfall 0.00 in
Snow Depth Not available.
UV 1.1 out of 12
Pollen .10 out of 12
Air Quality Not available.
Flu Activity Not available.
METAR KFOE 281553Z 20006KT 10SM CLR M03/M06 A3023 RMK AO2 SLP251 T10281061

More Conditions Fewer Conditions

10-Day Weather Forecast

Almanac

Astronomy

Dec. 28, 2014 Rise Set
Actual Time
Civil Twilight
Nautical Twilight
Astronomical Twilight
Moon
Length of Visible Light
Length of Day
Tomorrow will be .
, % of the Moon is Illuminated

Today's Extremes

State Highs State Lows

Community

WunderPhotos

Upload Photos

1,781,314 photos uploaded!

WunderBlogs® & News

Nearby

Air Quality

  Air Quality AQ Index Pollutant
Not available.

Snow Depth

Station Depth Elevation

Earthquake Activity

City Distance Mag. Time & Date
Minimum magnitude displayed is 2.5.

Coastal Water Temperatures

Place Temperature

Nearby Weather Stations